CheckWX is a tool to help pilots better visualize weather data.  It is not intended as a substitute for an official pre-flight weather briefing.

07:52:01 UTC

KOGB TAF
Orangeburg Municipal Airport
Orangeburg, South Carolina, USA
KOGB 060529Z 0606/0706 VRB03KT P6SM BKN100 FM061600 20007KT P6SM SCT050 BKN100 FM062200 VRB03KT P6SM SCT030 OVC070

Dec-6@
06:00 UTC

Dec-6 @ 06:00 UTC

Dec-6@
16:00 UTC

Dec-6 @ 16:00 UTC

KOGB 060529Z 0606/0706 VRB03KT P6SM BKN100
Wind
  • Variable at 3 KTS
Cloud Levels
  • Broken at 10,000' AGL

Dec-6@
16:00 UTC

Dec-6 @ 16:00 UTC

Dec-6@
22:00 UTC

Dec-6 @ 22:00 UTC

FM061600 20007KT P6SM SCT050 BKN100

From

From Standard forecast or significant change

Wind
  • 200° at 7 KTS
Cloud Levels
  • Scattered at 5,000' AGL
  • Broken at 10,000' AGL

Dec-6@
22:00 UTC

Dec-6 @ 22:00 UTC

Dec-7@
06:00 UTC

Dec-7 @ 06:00 UTC

FM062200 VRB03KT P6SM SCT030 OVC070

From

From Standard forecast or significant change

Wind
  • Variable at 3 KTS
Cloud Levels
  • Scattered at 3,000' AGL
  • Overcast at 7,000' AGL